Plattsmouth, NE

3:57 PM CDT on September 03, 2015 (GMT -0500)
Osage Ranch | | Change Station
CLOSE
Current Station
Personal Weather Station
Location: Plattsmouth, NE
Elevation: 1132 ft
Nearby Weather Stations

Elev 1132 ft 41.00 °N, 95.91 °W | Updated 10 minutes ago

Clear
Clear
91.9 °F
Feels Like 99 °F
N
10.4
Wind Variable Wind from SSW

Today
High -- | Low -- °F
--% Chance of Precip.
Yesterday
High -- | Low -- °F
Precip. -- in
6:52 AM 7:53 PM
Waning Gibbous, 67% visible
Pressure 29.83 in
Visibility 10.0 miles
Clouds Clear
Heat Index 99 °F
Dew Point 72 °F
Humidity 52%
Rainfall 0.00 in
Snow Depth Not available.
UV 6 out of 12
Pollen 11.50 out of 12
Air Quality Not available.
Flu Activity Not available.
METAR KPMV 032035Z AUTO 16010G16KT 10SM CLR 32/20 A2983 RMK AO2 T03220200
Pressure 29.83 in
Visibility 10.0 miles
Clouds Clear
Heat Index 99 °F
Dew Point 72 °F
Humidity 52%
Rainfall 0.00 in
Snow Depth Not available.
UV 6 out of 12
Pollen 11.50 out of 12
Air Quality Not available.
Flu Activity Not available.
METAR KPMV 032035Z AUTO 16010G16KT 10SM CLR 32/20 A2983 RMK AO2 T03220200

10-Day Weather Forecast

×

Almanac

Astronomy

Sep. 03, 2015 Rise Set
Actual Time
Civil Twilight
Nautical Twilight
Astronomical Twilight
Moon
Length of Visible Light
Length of Day
Tomorrow will be .
, % of the Moon is Illuminated

Today's Extremes

State Highs State Lows

Community

WunderPhotos

Upload Photos

1,852,036 photos uploaded!

WunderBlogs® & News

Nearby

Air Quality

  Air Quality AQ Index Pollutant
Not available.

Snow Depth

Station Depth Elevation

Earthquake Activity

City Distance Mag. Time & Date
Minimum magnitude displayed is 2.5.

Coastal Water Temperatures

Place Temperature

Stations

Nearby Weather Stations

Station Location Temp. Windchill Dew Point Humidity Wind Precip. Elev Updated Type